Akutan, Alaska
Current Conditions -  °F | °C
As of 7:35 PM on Saturday 20 Dec 2014 (Local Time) from PAUT Reporting Station
Haze Haze  
Wind Chill: 32°   Ceiling: 800
Heat Index: 38°   Visibility: 5mi
Dew Point: 38°   Wind: 9mph
Humidity: 97%   Direction: 300°WNW
Pressure: 28.95"   Gusts: NA
Location:  54.14°N, 165.77°W
Report Text: PAUT 210435Z AUTO 30008KT 5SM BR OVC008 04/03 A2895 RMK AO2 T00350031
Loading
Personal Weather Stations






























Interactive Weather Map New forecast layout! Learn more

10-Day Weather Forecast

Advertisements
Track Severe Weather on mobile